createdAt,value
2023-04-09T00:01:05.196Z,57.08
2023-04-09T00:03:32.373Z,48.88
2023-04-09T00:06:00.632Z,50.67
2023-04-09T00:08:27.460Z,56.08
2023-04-09T00:10:54.401Z,53.42
2023-04-09T00:13:31.969Z,47.78
2023-04-09T00:16:05.919Z,51.22
2023-04-09T00:18:32.710Z,50.95
2023-04-09T00:21:00.973Z,49.15
2023-04-09T00:23:27.669Z,53.58
2023-04-09T00:25:54.485Z,49.58
2023-04-09T00:28:21.178Z,50.60
2023-04-09T00:30:47.902Z,49.70
2023-04-09T00:33:14.608Z,48.05
2023-04-09T00:35:41.472Z,56.22
2023-04-09T00:38:09.736Z,52.30
2023-04-09T00:40:36.575Z,51.15
2023-04-09T00:43:03.789Z,53.83
2023-04-09T00:45:30.685Z,53.90
2023-04-09T00:47:57.630Z,49.22
2023-04-09T00:50:24.535Z,52.60
2023-04-09T00:52:51.393Z,51.42
2023-04-09T00:55:21.320Z,54.10
2023-04-09T00:57:48.076Z,49.72
2023-04-09T01:00:15.373Z,43.03
2023-04-09T01:02:42.461Z,48.83
2023-04-09T01:05:10.557Z,43.63
2023-04-09T01:07:52.056Z,45.60
2023-04-09T01:10:28.307Z,46.67
2023-04-09T01:13:04.096Z,43.92
2023-04-09T01:15:34.917Z,45.00
2023-04-09T01:18:07.287Z,38.92
2023-04-09T01:20:38.676Z,40.42
2023-04-09T01:23:19.547Z,41.53
2023-04-09T01:26:01.813Z,38.97
2023-04-09T01:28:39.349Z,41.80
2023-04-09T01:31:11.064Z,38.00
2023-04-09T01:33:38.727Z,37.42
2023-04-09T01:36:07.255Z,39.42
2023-04-09T01:38:36.655Z,36.83
2023-04-09T01:41:04.462Z,40.40
2023-04-09T01:43:33.460Z,42.95
2023-04-09T01:46:02.542Z,40.60
2023-04-09T01:48:30.181Z,38.13
2023-04-09T01:50:57.670Z,43.38
2023-04-09T01:53:24.845Z,41.13
2023-04-09T01:55:51.577Z,41.53
2023-04-09T01:58:18.298Z,37.08
2023-04-09T02:00:47.966Z,41.42
2023-04-09T02:03:21.749Z,37.75
2023-04-09T02:05:56.008Z,38.85
2023-04-09T02:08:24.697Z,40.03
2023-04-09T02:10:54.634Z,39.17
2023-04-09T02:13:23.382Z,37.08
2023-04-09T02:15:51.523Z,41.22
2023-04-09T02:18:23.992Z,37.65
2023-04-09T02:20:52.384Z,40.10
2023-04-09T02:23:19.174Z,41.17
2023-04-09T02:25:46.047Z,42.15
2023-04-09T02:28:12.853Z,35.13
2023-04-09T02:30:39.557Z,42.53
2023-04-09T02:33:06.747Z,47.05
2023-04-09T02:35:34.904Z,42.40
2023-04-09T02:38:01.878Z,40.83
2023-04-09T02:40:28.796Z,44.35
2023-04-09T02:42:55.619Z,38.72
2023-04-09T02:45:22.275Z,42.17
2023-04-09T02:47:49.113Z,42.92
2023-04-09T02:50:15.946Z,44.08
2023-04-09T02:52:49.995Z,44.78
2023-04-09T02:55:19.249Z,43.80
2023-04-09T02:57:45.928Z,43.83
2023-04-09T03:00:13.542Z,46.20
2023-04-09T03:02:40.781Z,46.13
2023-04-09T03:05:08.185Z,51.75
2023-04-09T03:07:34.883Z,43.60
2023-04-09T03:10:03.385Z,46.70
2023-04-09T03:12:30.135Z,47.00
2023-04-09T03:14:56.803Z,42.53
2023-04-09T03:17:23.536Z,42.53
2023-04-09T03:19:50.472Z,50.17
2023-04-09T03:22:17.362Z,47.67
2023-04-09T03:24:44.306Z,43.88
2023-04-09T03:27:12.573Z,48.50
2023-04-09T03:29:39.387Z,46.15
2023-04-09T03:32:07.411Z,45.80
2023-04-09T03:34:34.154Z,52.20
2023-04-09T03:37:01.133Z,47.70
2023-04-09T03:41:57.535Z,44.30
2023-04-09T03:44:27.064Z,39.42
2023-04-09T03:47:14.052Z,42.60
2023-04-09T03:49:40.775Z,48.83
2023-04-09T03:52:29.373Z,48.10
2023-04-09T03:55:03.594Z,40.92
2023-04-09T03:57:30.486Z,42.03
2023-04-09T03:59:59.584Z,42.10
2023-04-09T04:02:26.807Z,48.08
2023-04-09T04:04:59.656Z,42.08
2023-04-09T04:07:32.646Z,41.38
2023-04-09T04:10:06.874Z,46.45
2023-04-09T04:12:34.307Z,41.50
2023-04-09T04:15:10.351Z,40.05
2023-04-09T04:17:51.485Z,49.95
2023-04-09T04:20:39.021Z,52.08
2023-04-09T04:23:09.911Z,50.42
2023-04-09T04:25:42.834Z,50.53
2023-04-09T04:28:13.306Z,49.28
2023-04-09T04:30:43.531Z,49.85
2023-04-09T04:33:11.017Z,45.05
2023-04-09T04:35:53.308Z,49.35
2023-04-09T04:38:33.486Z,54.30
2023-04-09T04:41:04.070Z,51.15
2023-04-09T04:43:33.385Z,49.05
2023-04-09T04:46:02.418Z,48.85
2023-04-09T04:48:31.331Z,46.15
2023-04-09T04:50:59.486Z,42.90
2023-04-09T04:53:31.404Z,41.13
2023-04-09T04:56:02.757Z,46.17
2023-04-09T04:58:29.591Z,48.85
2023-04-09T05:00:59.218Z,45.65
2023-04-09T05:03:27.901Z,46.72
2023-04-09T05:06:13.959Z,44.92
2023-04-09T05:08:43.618Z,50.35
2023-04-09T05:11:11.879Z,55.55
2023-04-09T05:13:39.959Z,46.53
2023-04-09T05:16:16.250Z,53.17
2023-04-09T05:18:45.532Z,54.17
2023-04-09T05:21:12.371Z,55.40
2023-04-09T05:23:41.654Z,64.25
2023-04-09T05:26:08.495Z,52.03
2023-04-09T05:28:46.369Z,52.50
2023-04-09T05:31:17.459Z,51.97
2023-04-09T05:33:55.371Z,51.58
2023-04-09T05:36:31.619Z,57.92
2023-04-09T05:38:58.608Z,50.58
2023-04-09T05:41:25.330Z,49.03
2023-04-09T05:44:11.176Z,46.25
2023-04-09T05:46:39.513Z,54.17
2023-04-09T05:49:08.546Z,50.53
2023-04-09T05:54:04.217Z,49.80
2023-04-09T05:56:34.684Z,48.78
2023-04-09T05:59:01.548Z,50.28
2023-04-09T06:01:28.300Z,48.47
2023-04-09T06:03:57.757Z,50.65
2023-04-09T06:06:26.475Z,48.55
2023-04-09T06:08:53.599Z,52.88
2023-04-09T06:11:20.317Z,45.85
2023-04-09T06:13:47.075Z,48.70
2023-04-09T06:16:13.933Z,48.10
2023-04-09T06:18:40.639Z,47.42
2023-04-09T06:21:08.844Z,45.03
2023-04-09T06:23:37.160Z,51.75
2023-04-09T06:26:03.887Z,49.85
2023-04-09T06:28:31.664Z,50.90
2023-04-09T06:30:59.055Z,47.78
2023-04-09T06:33:25.899Z,51.83
2023-04-09T06:35:52.639Z,43.05
2023-04-09T06:38:19.474Z,43.67
2023-04-09T06:40:47.561Z,46.95
2023-04-09T06:43:14.433Z,46.38
2023-04-09T06:45:49.051Z,41.72
2023-04-09T06:48:15.835Z,43.88
2023-04-09T06:50:42.590Z,45.70
2023-04-09T06:53:09.316Z,49.72
2023-04-09T06:55:36.161Z,41.38
2023-04-09T06:58:04.255Z,42.50
2023-04-09T07:00:31.036Z,48.30
2023-04-09T07:02:57.830Z,44.17
2023-04-09T07:05:24.732Z,38.58
2023-04-09T07:07:51.451Z,49.05
2023-04-09T07:10:18.426Z,39.92
2023-04-09T07:12:45.157Z,41.15
2023-04-09T07:15:13.429Z,43.30
2023-04-09T07:17:41.510Z,38.33
2023-04-09T07:20:09.493Z,35.00
2023-04-09T07:22:36.643Z,35.03
2023-04-09T07:25:04.358Z,41.67
2023-04-09T07:27:31.240Z,33.63
2023-04-09T07:29:58.917Z,38.15
2023-04-09T07:32:28.114Z,34.65
2023-04-09T07:34:55.817Z,41.35
2023-04-09T07:37:23.258Z,39.05
2023-04-09T07:39:51.763Z,42.30
2023-04-09T07:42:18.875Z,35.05
2023-04-09T07:44:45.622Z,36.72
2023-04-09T07:47:12.569Z,34.60
2023-04-09T07:49:40.840Z,52.00
2023-04-09T07:52:07.768Z,51.70
2023-04-09T07:54:35.162Z,37.80
2023-04-09T07:57:02.505Z,36.80
2023-04-09T07:59:29.357Z,40.70
2023-04-09T08:01:56.348Z,35.28
2023-04-09T08:04:23.414Z,48.45
2023-04-09T08:06:51.653Z,42.05
2023-04-09T08:09:18.823Z,35.75
2023-04-09T08:11:46.228Z,36.40
2023-04-09T08:14:13.680Z,37.85
2023-04-09T08:16:40.958Z,36.63
2023-04-09T08:19:07.803Z,36.63
2023-04-09T08:21:34.680Z,39.70
2023-04-09T08:24:03.317Z,41.90
2023-04-09T08:26:30.264Z,44.50
2023-04-09T08:28:57.312Z,42.45
2023-04-09T08:31:24.212Z,40.78
2023-04-09T08:33:51.228Z,38.30
2023-04-09T08:36:18.150Z,35.20
2023-04-09T08:38:45.072Z,32.60
2023-04-09T08:41:19.772Z,38.20
2023-04-09T08:46:20.122Z,33.00
2023-04-09T08:48:48.931Z,44.15
2023-04-09T08:51:16.264Z,38.58
2023-04-09T08:53:45.608Z,38.45
2023-04-09T08:56:12.311Z,38.88
2023-04-09T08:58:42.924Z,34.38
2023-04-09T09:01:19.265Z,43.58
2023-04-09T09:03:54.758Z,34.38
2023-04-09T09:09:00.238Z,34.95
2023-04-09T09:11:26.994Z,32.30
2023-04-09T09:14:00.081Z,36.08
2023-04-09T09:16:27.061Z,27.40
2023-04-09T09:18:54.675Z,27.98
2023-04-09T09:21:21.761Z,25.38
2023-04-09T09:23:48.624Z,26.20
2023-04-09T09:26:16.640Z,25.17
2023-04-09T09:28:43.586Z,25.83
2023-04-09T09:31:12.820Z,23.15
2023-04-09T09:33:39.957Z,22.15
2023-04-09T09:36:07.340Z,23.75
2023-04-09T09:38:34.266Z,24.65
2023-04-09T09:41:16.808Z,23.90
2023-04-09T09:43:43.698Z,26.02
2023-04-09T09:46:12.244Z,26.30
2023-04-09T09:48:39.991Z,29.90
2023-04-09T09:51:09.781Z,27.50
2023-04-09T09:53:37.323Z,27.80
2023-04-09T09:56:05.964Z,29.80
2023-04-09T09:58:37.889Z,26.30
2023-04-09T10:01:08.314Z,26.63
2023-04-09T10:03:39.607Z,25.48
2023-04-09T10:06:07.000Z,30.15
2023-04-09T10:08:35.078Z,35.22
2023-04-09T10:11:02.203Z,27.05
2023-04-09T10:13:31.784Z,24.45
2023-04-09T10:15:58.938Z,26.08
2023-04-09T10:18:26.193Z,26.52
2023-04-09T10:20:58.648Z,27.73
2023-04-09T10:23:33.949Z,22.80
2023-04-09T10:26:00.726Z,27.38
2023-04-09T10:28:27.410Z,25.23
2023-04-09T10:30:54.112Z,34.75
2023-04-09T10:33:23.730Z,27.55
2023-04-09T10:38:33.667Z,23.75
2023-04-09T10:41:07.279Z,24.77
2023-04-09T10:43:35.827Z,26.55
2023-04-09T10:46:05.198Z,27.70
2023-04-09T10:48:33.572Z,24.80
2023-04-09T10:51:02.862Z,24.05
2023-04-09T10:53:32.466Z,22.33
2023-04-09T10:55:59.360Z,25.27
2023-04-09T10:58:26.089Z,26.02
2023-04-09T11:00:54.106Z,26.50
2023-04-09T11:03:22.974Z,24.45
2023-04-09T11:05:52.724Z,24.48
2023-04-09T11:08:19.746Z,24.15
2023-04-09T11:10:49.905Z,24.55
2023-04-09T11:13:18.824Z,22.80
2023-04-09T11:15:45.877Z,30.58
2023-04-09T11:18:19.739Z,27.50
2023-04-09T11:20:46.578Z,29.45
2023-04-09T11:23:13.736Z,25.15
2023-04-09T11:25:40.468Z,25.02
2023-04-09T11:28:09.617Z,23.17
2023-04-09T11:30:36.526Z,24.77
2023-04-09T11:33:03.943Z,26.77
2023-04-09T11:35:30.732Z,26.90
2023-04-09T11:37:57.681Z,26.98
2023-04-09T11:40:26.527Z,25.10
2023-04-09T11:42:54.656Z,24.67
2023-04-09T11:45:24.830Z,23.73
2023-04-09T11:47:52.060Z,25.38
2023-04-09T11:50:19.672Z,23.48
2023-04-09T11:52:46.844Z,25.60
2023-04-09T11:55:23.796Z,26.27
2023-04-09T11:57:54.529Z,25.20
2023-04-09T12:00:22.689Z,23.63
2023-04-09T12:02:50.242Z,22.10
2023-04-09T12:05:25.614Z,23.95
2023-04-09T12:07:57.177Z,23.15
2023-04-09T12:10:27.446Z,22.27
2023-04-09T12:12:54.181Z,23.60
2023-04-09T12:15:23.415Z,22.35
2023-04-09T12:17:51.853Z,22.30
2023-04-09T12:20:33.657Z,21.92
2023-04-09T12:23:02.133Z,22.77
2023-04-09T12:25:29.282Z,19.90
2023-04-09T12:27:56.556Z,21.75
2023-04-09T12:30:25.167Z,21.95
2023-04-09T12:32:52.859Z,22.95
2023-04-09T12:35:20.026Z,22.92
2023-04-09T12:37:46.804Z,21.30
2023-04-09T12:40:13.747Z,22.45
2023-04-09T12:42:40.771Z,20.58
2023-04-09T12:45:08.868Z,22.63
2023-04-09T12:47:37.198Z,23.15
2023-04-09T12:50:04.075Z,24.80
2023-04-09T12:52:30.819Z,25.02
2023-04-09T12:54:57.566Z,26.70
2023-04-09T12:57:24.362Z,22.27
2023-04-09T12:59:51.071Z,24.25
2023-04-09T13:02:18.173Z,24.83
2023-04-09T13:04:46.543Z,27.05
2023-04-09T13:07:14.234Z,25.13
2023-04-09T13:09:41.110Z,24.90
2023-04-09T13:12:07.969Z,26.55
2023-04-09T13:14:34.724Z,25.35
2023-04-09T13:17:01.561Z,26.58
2023-04-09T13:19:28.297Z,22.65
2023-04-09T13:21:56.416Z,26.92
2023-04-09T13:24:23.140Z,26.48
2023-04-09T13:26:50.310Z,28.13
2023-04-09T13:29:17.124Z,27.83
2023-04-09T13:31:44.069Z,29.80
2023-04-09T13:34:10.861Z,25.83
2023-04-09T13:36:37.639Z,26.50
2023-04-09T13:39:05.790Z,27.95
2023-04-09T13:41:32.937Z,29.63
2023-04-09T13:44:00.190Z,27.27
2023-04-09T13:46:27.138Z,24.38
2023-04-09T13:48:54.455Z,26.27
2023-04-09T13:51:21.550Z,26.88
2023-04-09T13:53:48.422Z,26.38
2023-04-09T13:56:16.918Z,23.70
2023-04-09T13:58:43.703Z,31.17
2023-04-09T14:01:10.803Z,27.08
2023-04-09T14:03:37.802Z,23.25
2023-04-09T14:06:05.094Z,22.05
2023-04-09T14:08:31.939Z,24.10
2023-04-09T14:10:58.718Z,23.70
2023-04-09T14:13:26.788Z,25.33
2023-04-09T14:15:53.578Z,24.60
2023-04-09T14:18:20.374Z,26.05
2023-04-09T14:20:47.253Z,25.38
2023-04-09T14:23:14.115Z,24.17
2023-04-09T14:25:40.831Z,24.13
2023-04-09T14:28:07.721Z,24.50
2023-04-09T14:30:35.853Z,21.85
2023-04-09T14:33:02.711Z,22.15
2023-04-09T14:35:29.486Z,22.63
2023-04-09T14:37:56.292Z,22.17
2023-04-09T14:40:23.124Z,22.75
2023-04-09T14:42:49.820Z,23.05
2023-04-09T14:45:16.560Z,22.10
2023-04-09T14:47:44.821Z,22.65
2023-04-09T14:50:11.555Z,21.83
2023-04-09T14:52:38.496Z,20.95
2023-04-09T14:55:06.233Z,20.15
2023-04-09T14:57:33.091Z,20.55
2023-04-09T14:59:59.924Z,23.98
2023-04-09T15:02:26.876Z,22.73
2023-04-09T15:04:55.095Z,22.80
2023-04-09T15:07:24.992Z,24.30
2023-04-09T15:09:52.064Z,20.25
2023-04-09T15:12:18.974Z,31.02
2023-04-09T15:14:45.755Z,27.25
2023-04-09T15:17:12.513Z,22.13
2023-04-09T15:19:39.277Z,21.27
2023-04-09T15:22:07.402Z,18.48
2023-04-09T15:24:34.352Z,20.70
2023-04-09T15:27:01.179Z,21.60
2023-04-09T15:29:27.968Z,20.13
2023-04-09T15:31:54.696Z,19.38
2023-04-09T15:34:21.475Z,17.35
2023-04-09T15:36:48.178Z,18.65
2023-04-09T15:39:16.642Z,16.50
2023-04-09T15:41:43.392Z,14.10
2023-04-09T15:44:10.231Z,15.48
2023-04-09T15:46:38.433Z,16.60
2023-04-09T15:49:05.510Z,15.45
2023-04-09T15:51:32.344Z,14.88
2023-04-09T15:53:59.478Z,12.68
2023-04-09T15:56:27.551Z,15.02
2023-04-09T15:58:54.436Z,14.70
2023-04-09T16:01:21.398Z,16.05
2023-04-09T16:03:48.208Z,17.60
2023-04-09T16:06:15.007Z,13.30
2023-04-09T16:08:41.891Z,15.10
2023-04-09T16:11:08.988Z,14.48
2023-04-09T16:13:37.248Z,15.20
2023-04-09T16:16:04.393Z,15.52
2023-04-09T16:18:31.149Z,13.40
2023-04-09T16:20:58.029Z,14.27
2023-04-09T16:23:26.404Z,13.55
2023-04-09T16:25:53.771Z,17.42
2023-04-09T16:28:21.220Z,17.90
2023-04-09T16:30:50.026Z,15.80
2023-04-09T16:33:16.916Z,17.70
2023-04-09T16:35:43.792Z,13.98
2023-04-09T16:38:10.761Z,15.48
2023-04-09T16:40:38.051Z,15.60
2023-04-09T16:43:05.261Z,17.15
2023-04-09T16:45:32.063Z,16.92
2023-04-09T16:48:00.207Z,15.55
2023-04-09T16:50:27.170Z,15.55
2023-04-09T16:52:53.887Z,15.70
2023-04-09T16:55:20.609Z,14.65
2023-04-09T16:57:47.398Z,13.38
2023-04-09T17:00:15.293Z,15.98
2023-04-09T17:02:42.106Z,14.05
2023-04-09T17:05:10.868Z,14.52
2023-04-09T17:07:37.568Z,13.07
2023-04-09T17:10:05.115Z,17.63
2023-04-09T17:12:31.964Z,13.32
2023-04-09T17:14:59.213Z,12.65
2023-04-09T17:17:25.984Z,14.90
2023-04-09T17:19:52.729Z,14.77
2023-04-09T17:22:20.858Z,17.02
2023-04-09T17:24:47.587Z,14.27
2023-04-09T17:27:14.298Z,15.10
2023-04-09T17:29:41.067Z,14.43
2023-04-09T17:32:07.783Z,13.80
2023-04-09T17:34:34.510Z,14.85
2023-04-09T17:37:01.375Z,15.07
2023-04-09T17:39:29.568Z,15.65
2023-04-09T17:41:56.363Z,12.98
2023-04-09T17:44:23.476Z,12.32
2023-04-09T17:46:50.232Z,12.40
2023-04-09T17:49:17.215Z,13.52
2023-04-09T17:51:44.114Z,13.70
2023-04-09T17:54:10.875Z,17.10
2023-04-09T17:56:39.112Z,16.58
2023-04-09T17:59:06.020Z,13.70
2023-04-09T18:01:33.021Z,13.43
2023-04-09T18:04:00.684Z,16.95
2023-04-09T18:06:27.770Z,13.93
2023-04-09T18:08:54.569Z,18.63
2023-04-09T18:11:21.283Z,15.48
2023-04-09T18:13:49.486Z,14.60
2023-04-09T18:16:16.299Z,17.00
2023-04-09T18:18:43.305Z,16.48
2023-04-09T18:21:09.966Z,17.80
2023-04-09T18:23:37.224Z,17.75
2023-04-09T18:26:04.226Z,18.95
2023-04-09T18:28:31.182Z,18.65
2023-04-09T18:30:59.340Z,18.60
2023-04-09T18:33:26.105Z,18.42
2023-04-09T18:35:52.919Z,17.30
2023-04-09T18:38:19.705Z,17.38
2023-04-09T18:40:46.402Z,19.50
2023-04-09T18:43:13.122Z,19.30
2023-04-09T18:45:39.832Z,15.90
2023-04-09T18:48:08.081Z,21.65
2023-04-09T18:50:34.918Z,17.27
2023-04-09T18:53:01.676Z,22.40
2023-04-09T18:55:28.378Z,18.02
2023-04-09T18:57:55.105Z,16.73
2023-04-09T19:00:21.758Z,16.92
2023-04-09T19:02:48.623Z,17.80
2023-04-09T19:05:17.039Z,51.33
2023-04-09T19:07:43.778Z,16.50
2023-04-09T19:10:10.767Z,17.92
2023-04-09T19:12:37.915Z,18.63
2023-04-09T19:15:05.110Z,18.65
2023-04-09T19:17:31.972Z,14.38
2023-04-09T19:19:58.806Z,18.10
2023-04-09T19:22:26.891Z,18.52
2023-04-09T19:24:53.616Z,19.45
2023-04-09T19:27:20.359Z,19.10
2023-04-09T19:29:47.175Z,20.58
2023-04-09T19:32:13.947Z,19.98
2023-04-09T19:34:40.750Z,18.63
2023-04-09T19:37:07.557Z,19.08
2023-04-09T19:39:35.706Z,20.73
2023-04-09T19:42:02.450Z,22.80
2023-04-09T19:44:29.202Z,18.05
2023-04-09T19:46:55.863Z,21.88
2023-04-09T19:49:22.714Z,19.52
2023-04-09T19:51:49.541Z,21.33
2023-04-09T19:54:16.253Z,21.90
2023-04-09T19:56:44.413Z,22.35
2023-04-09T19:59:11.135Z,22.75
2023-04-09T20:01:37.977Z,22.85
2023-04-09T20:04:05.093Z,24.23
2023-04-09T20:06:32.656Z,23.17
2023-04-09T20:08:59.403Z,21.85
2023-04-09T20:11:26.115Z,22.02
2023-04-09T20:13:54.192Z,22.63
2023-04-09T20:16:20.909Z,18.48
2023-04-09T20:18:47.706Z,19.27
2023-04-09T20:21:14.641Z,22.60
2023-04-09T20:23:41.463Z,22.15
2023-04-09T20:26:08.544Z,19.83
2023-04-09T20:28:35.445Z,22.90
2023-04-09T20:31:04.432Z,22.35
2023-04-09T20:33:31.199Z,21.80
2023-04-09T20:35:58.202Z,22.52
2023-04-09T20:38:25.384Z,23.58
2023-04-09T20:40:52.193Z,20.05
2023-04-09T20:43:19.027Z,20.42
2023-04-09T20:45:46.066Z,20.00
2023-04-09T20:48:14.185Z,19.73
2023-04-09T20:50:40.853Z,19.45
2023-04-09T20:53:08.014Z,22.15
2023-04-09T20:55:35.344Z,21.67
2023-04-09T20:58:02.153Z,21.60
2023-04-09T21:00:28.947Z,19.52
2023-04-09T21:02:55.804Z,20.08
2023-04-09T21:05:24.471Z,19.13
2023-04-09T21:07:51.464Z,21.35
2023-04-09T21:10:18.176Z,21.58
2023-04-09T21:12:44.879Z,24.30
2023-04-09T21:15:11.719Z,23.45
2023-04-09T21:17:38.548Z,21.08
2023-04-09T21:20:06.427Z,20.17
2023-04-09T21:22:35.340Z,19.33
2023-04-09T21:25:02.169Z,19.90
2023-04-09T21:27:28.981Z,23.13
2023-04-09T21:29:55.725Z,20.50
2023-04-09T21:32:22.493Z,20.02
2023-04-09T21:34:49.626Z,21.33
2023-04-09T21:37:16.357Z,20.80
2023-04-09T21:39:44.458Z,20.20
2023-04-09T21:42:11.168Z,23.60
2023-04-09T21:44:38.056Z,21.50
2023-04-09T21:47:04.785Z,19.17
2023-04-09T21:49:31.571Z,22.38
2023-04-09T21:51:58.339Z,19.58
2023-04-09T21:54:25.031Z,21.30
2023-04-09T21:56:53.106Z,19.83
2023-04-09T21:59:20.045Z,21.70
2023-04-09T22:01:49.927Z,19.80
2023-04-09T22:04:16.824Z,19.17
2023-04-09T22:06:45.255Z,20.75
2023-04-09T22:09:11.953Z,20.05
2023-04-09T22:11:38.615Z,19.15
2023-04-09T22:14:07.020Z,20.50
2023-04-09T22:16:33.775Z,18.92
2023-04-09T22:19:00.707Z,24.67
2023-04-09T22:21:27.686Z,20.67
2023-04-09T22:23:54.421Z,21.42
2023-04-09T22:26:21.058Z,18.35
2023-04-09T22:28:47.739Z,19.40
2023-04-09T22:31:16.198Z,19.83
2023-04-09T22:33:43.006Z,20.77
2023-04-09T22:36:09.674Z,16.92
2023-04-09T22:38:36.521Z,19.42
2023-04-09T22:41:03.308Z,21.20
2023-04-09T22:43:30.124Z,22.05
2023-04-09T22:45:56.881Z,21.10
2023-04-09T22:48:24.960Z,23.13
2023-04-09T22:50:51.716Z,20.35
2023-04-09T22:53:18.483Z,20.25
2023-04-09T22:55:45.957Z,20.60
2023-04-09T22:58:12.914Z,19.70
2023-04-09T23:00:39.638Z,21.63
2023-04-09T23:03:06.476Z,22.42
2023-04-09T23:05:34.909Z,20.95
2023-04-09T23:08:01.654Z,20.10
2023-04-09T23:10:28.437Z,23.40
2023-04-09T23:12:55.146Z,21.88
2023-04-09T23:15:21.839Z,21.17
2023-04-09T23:17:48.603Z,20.20
2023-04-09T23:20:15.368Z,24.33
2023-04-09T23:22:45.245Z,19.75
2023-04-09T23:25:12.064Z,21.98
2023-04-09T23:27:38.801Z,23.92
2023-04-09T23:30:06.807Z,21.05
2023-04-09T23:32:33.692Z,23.88
2023-04-09T23:35:00.685Z,20.65
2023-04-09T23:37:27.950Z,20.80
2023-04-09T23:39:55.976Z,21.65
2023-04-09T23:42:22.705Z,21.23
2023-04-09T23:44:49.352Z,22.13
2023-04-09T23:47:16.464Z,21.17
2023-04-09T23:49:43.298Z,21.50
2023-04-09T23:52:10.043Z,23.75
2023-04-09T23:54:36.751Z,23.17
2023-04-09T23:57:04.987Z,19.92
2023-04-09T23:59:31.692Z,23.65
